METAR AND TAF INFORMATION
METAR FOR TNCE
ADDS - METARS form results

(2254 UTC 26 March 2019)
Data provider http://aviationweather.gov/metar/data/
 
METAR text: TNCE 262155Z AUTO 09009KT 050V130 //// // ///////// 26/21 Q1013 RE//
Conditions at: TNCE (FDR ARPT/ORANJES, AN) observed 2155 UTC 26 March 2019
Temperature: 26.0°C (79°F)
Dewpoint: 21.0°C (70°F) [RH = 74%]
Pressure (altimeter): 29.91 inches Hg (1013.0 mb)
Winds: from the E (90 degrees) at 10 MPH (9 knots; 4.6 m/s)
Visibility: missing
Ceiling: unknown
Clouds: missing
Weather: no significant weather observed at this time

 AIRPORT MAP

 RUNWAY INFORMATION
Runway 06 Runway length 4265 ft Runway width 100 ft
Runway elevation 129 ft Runway displaced threshold 0 ft Runway heading 50
Runway 24 Runway length 4265 ft Runway width 100 ft
Runway elevation 95 ft Runway displaced threshold 0 ft Runway heading 230

 AIRPORT FREQUENCIES
Type INFO Name FIS Frequency 118.1 MHZ

 AIRPORT NEAR NAVIGATION AIDS
Type NDB Name St.eEstatius Frequency 235 KHZ



Powered by Virtual Airlines Manager [v2.6.2]

Impressum | Datenschutz